createdAt,value
2023-01-30T00:01:28.946Z,101589.45
2023-01-30T00:03:57.519Z,101589.50
2023-01-30T00:06:26.111Z,101592.91
2023-01-30T00:08:54.588Z,101588.63
2023-01-30T00:11:23.787Z,101590.56
2023-01-30T00:13:52.386Z,101592.89
2023-01-30T00:16:20.682Z,101600.78
2023-01-30T00:18:48.845Z,101594.59
2023-01-30T00:21:17.337Z,101595.40
2023-01-30T00:23:46.212Z,101601.09
2023-01-30T00:26:14.536Z,101598.53
2023-01-30T00:28:44.039Z,101596.84
2023-01-30T00:31:12.821Z,101584.49
2023-01-30T00:33:41.095Z,101590.42
2023-01-30T00:36:10.987Z,101587.04
2023-01-30T00:38:39.398Z,101585.41
2023-01-30T00:41:10.965Z,101583.08
2023-01-30T00:43:58.179Z,101581.98
2023-01-30T00:46:51.427Z,101581.42
2023-01-30T00:49:22.378Z,101572.20
2023-01-30T00:51:50.748Z,101572.35
2023-01-30T00:54:19.246Z,101571.09
2023-01-30T00:56:47.721Z,101567.82
2023-01-30T00:59:16.004Z,101562.02
2023-01-30T01:01:44.906Z,101556.23
2023-01-30T01:04:13.855Z,101554.32
2023-01-30T01:06:42.915Z,101550.83
2023-01-30T01:09:11.762Z,101548.38
2023-01-30T01:11:42.224Z,101545.77
2023-01-30T01:14:10.832Z,101546.67
2023-01-30T01:16:39.482Z,101540.98
2023-01-30T01:19:07.684Z,101542.84
2023-01-30T01:21:36.072Z,101545.48
2023-01-30T01:24:07.308Z,101541.40
2023-01-30T01:26:35.749Z,101538.53
2023-01-30T01:29:04.404Z,101537.88
2023-01-30T01:31:32.974Z,101535.34
2023-01-30T01:34:01.379Z,101532.76
2023-01-30T01:36:52.240Z,101535.99
2023-01-30T01:39:17.788Z,101533.41
2023-01-30T01:41:46.176Z,101532.27
2023-01-30T01:44:17.479Z,101533.01
2023-01-30T01:46:57.266Z,101531.73
2023-01-30T01:49:30.220Z,101530.60
2023-01-30T01:52:09.818Z,101528.73
2023-01-30T01:54:43.605Z,101525.80
2023-01-30T01:57:18.548Z,101527.11
2023-01-30T01:59:53.173Z,101523.12
2023-01-30T02:02:22.243Z,101518.27
2023-01-30T02:05:03.975Z,101513.65
2023-01-30T02:07:52.293Z,101510.27
2023-01-30T02:10:30.499Z,101511.96
2023-01-30T02:12:59.201Z,101511.41
2023-01-30T02:15:27.780Z,101508.11
2023-01-30T02:17:56.271Z,101507.46
2023-01-30T02:20:57.807Z,101513.40
2023-01-30T02:23:56.077Z,101508.06
2023-01-30T02:26:24.510Z,101505.83
2023-01-30T02:29:10.451Z,101503.88
2023-01-30T02:31:57.762Z,101503.66
2023-01-30T02:34:32.192Z,101499.60
2023-01-30T02:37:09.572Z,101497.28
2023-01-30T02:40:21.043Z,101495.47
2023-01-30T02:42:58.225Z,101489.27
2023-01-30T02:45:46.327Z,101486.88
2023-01-30T02:48:25.401Z,101482.95
2023-01-30T02:51:05.939Z,101485.92
2023-01-30T02:53:35.180Z,101484.61
2023-01-30T02:56:04.045Z,101482.98
2023-01-30T02:58:41.544Z,101484.54
2023-01-30T03:01:45.345Z,101478.01
2023-01-30T03:04:53.120Z,101478.38
2023-01-30T03:07:45.901Z,101473.34
2023-01-30T03:10:34.311Z,101470.84
2023-01-30T03:13:21.272Z,101469.95
2023-01-30T03:15:57.684Z,101478.13
2023-01-30T03:18:26.062Z,101472.10
2023-01-30T03:20:55.571Z,101471.91
2023-01-30T03:23:23.952Z,101473.48
2023-01-30T03:25:52.646Z,101474.17
2023-01-30T03:28:22.172Z,101469.68
2023-01-30T03:30:50.875Z,101467.46
2023-01-30T03:33:19.334Z,101467.73
2023-01-30T03:35:52.191Z,101465.77
2023-01-30T03:38:20.908Z,101459.83
2023-01-30T03:40:51.266Z,101454.98
2023-01-30T03:43:20.036Z,101452.61
2023-01-30T03:45:48.648Z,101454.81
2023-01-30T03:48:17.423Z,101452.64
2023-01-30T03:50:45.910Z,101444.36
2023-01-30T03:53:14.291Z,101444.31
2023-01-30T03:55:45.214Z,101439.66
2023-01-30T03:58:14.022Z,101443.17
2023-01-30T04:00:42.517Z,101440.98
2023-01-30T04:03:11.303Z,101430.84
2023-01-30T04:05:39.896Z,101430.57
2023-01-30T04:08:09.094Z,101424.39
2023-01-30T04:10:37.688Z,101421.48
2023-01-30T04:13:06.688Z,101420.88
2023-01-30T04:15:35.579Z,101420.79
2023-01-30T04:18:24.121Z,101413.86
2023-01-30T04:21:02.849Z,101408.81
2023-01-30T04:23:35.934Z,101412.45
2023-01-30T04:26:05.967Z,101410.75
2023-01-30T04:28:36.904Z,101411.80
2023-01-30T04:31:06.623Z,101404.95
2023-01-30T04:33:44.207Z,101406.76
2023-01-30T04:36:13.312Z,101405.88
2023-01-30T04:38:43.548Z,101403.64
2023-01-30T04:41:12.023Z,101402.21
2023-01-30T04:43:42.869Z,101399.05
2023-01-30T04:46:30.894Z,101395.47
2023-01-30T04:48:59.285Z,101391.36
2023-01-30T04:51:27.867Z,101391.77
2023-01-30T04:53:56.466Z,101393.73
2023-01-30T04:56:24.649Z,101393.34
2023-01-30T04:58:55.688Z,101386.20
2023-01-30T05:01:38.983Z,101387.35
2023-01-30T05:04:08.627Z,101389.71
2023-01-30T05:06:37.549Z,101388.04
2023-01-30T05:09:06.013Z,101388.45
2023-01-30T05:11:35.139Z,101387.80
2023-01-30T05:14:03.796Z,101389.62
2023-01-30T05:16:32.286Z,101390.39
2023-01-30T05:19:00.568Z,101388.16
2023-01-30T05:21:29.153Z,101387.48
2023-01-30T05:23:57.956Z,101384.54
2023-01-30T05:26:26.281Z,101380.48
2023-01-30T05:28:56.873Z,101378.78
2023-01-30T05:31:25.934Z,101377.88
2023-01-30T05:33:54.350Z,101378.85
2023-01-30T05:36:23.641Z,101374.09
2023-01-30T05:38:51.837Z,101373.88
2023-01-30T05:41:20.063Z,101376.29
2023-01-30T05:43:51.769Z,101378.33
2023-01-30T05:46:20.674Z,101377.09
2023-01-30T05:48:49.301Z,101376.56
2023-01-30T05:51:26.147Z,101373.03
2023-01-30T05:53:55.145Z,101373.52
2023-01-30T05:56:23.951Z,101371.24
2023-01-30T05:58:53.966Z,101369.00
2023-01-30T06:01:23.136Z,101372.69
2023-01-30T06:03:52.628Z,101374.44
2023-01-30T06:06:21.963Z,101370.27
2023-01-30T06:08:54.144Z,101374.48
2023-01-30T06:11:23.429Z,101365.61
2023-01-30T06:13:52.140Z,101363.33
2023-01-30T06:16:21.132Z,101360.39
2023-01-30T06:18:49.429Z,101359.39
2023-01-30T06:21:17.913Z,101358.01
2023-01-30T06:23:46.909Z,101355.71
2023-01-30T06:26:15.435Z,101347.89
2023-01-30T06:28:44.608Z,101348.92
2023-01-30T06:31:13.038Z,101344.96
2023-01-30T06:33:41.371Z,101339.65
2023-01-30T06:36:09.861Z,101336.69
2023-01-30T06:38:38.263Z,101335.55
2023-01-30T06:41:07.152Z,101334.81
2023-01-30T06:43:35.530Z,101333.33
2023-01-30T06:46:04.279Z,101334.27
2023-01-30T06:48:32.812Z,101334.45
2023-01-30T06:51:01.083Z,101331.81
2023-01-30T06:53:32.546Z,101329.88
2023-01-30T06:56:02.058Z,101331.80
2023-01-30T06:58:30.334Z,101331.39
2023-01-30T07:00:58.820Z,101326.77
2023-01-30T07:03:27.406Z,101328.09
2023-01-30T07:05:55.792Z,101321.84
2023-01-30T07:08:24.483Z,101321.22
2023-01-30T07:10:52.984Z,101318.45
2023-01-30T07:13:21.458Z,101319.74
2023-01-30T07:15:49.938Z,101315.65
2023-01-30T07:18:18.154Z,101311.82
2023-01-30T07:20:50.027Z,101313.75
2023-01-30T07:23:18.485Z,101309.17
2023-01-30T07:25:46.766Z,101306.36
2023-01-30T07:28:15.447Z,101306.55
2023-01-30T07:30:44.889Z,101306.70
2023-01-30T07:33:13.558Z,101299.84
2023-01-30T07:35:41.831Z,101298.67
2023-01-30T07:38:10.063Z,101295.37
2023-01-30T07:40:38.501Z,101297.33
2023-01-30T07:43:10.151Z,101298.26
2023-01-30T07:45:45.709Z,101289.91
2023-01-30T07:48:18.487Z,101288.06
2023-01-30T07:50:47.190Z,101282.59
2023-01-30T07:53:18.760Z,101280.52
2023-01-30T07:55:47.017Z,101274.84
2023-01-30T07:58:16.509Z,101266.63
2023-01-30T08:00:45.551Z,101256.95
2023-01-30T08:03:16.709Z,101252.74
2023-01-30T08:05:48.041Z,101249.86
2023-01-30T08:08:16.890Z,101247.33
2023-01-30T08:10:45.302Z,101236.51
2023-01-30T08:13:13.588Z,101234.37
2023-01-30T08:15:42.070Z,101227.21
2023-01-30T08:18:10.354Z,101220.98
2023-01-30T08:20:38.892Z,101219.44
2023-01-30T08:23:07.475Z,101213.26
2023-01-30T08:25:37.166Z,101208.10
2023-01-30T08:28:05.641Z,101202.41
2023-01-30T08:30:34.679Z,101204.98
2023-01-30T08:33:03.423Z,101200.66
2023-01-30T08:35:31.809Z,101197.07
2023-01-30T08:38:00.191Z,101188.72
2023-01-30T08:40:28.575Z,101186.05
2023-01-30T08:42:57.271Z,101182.98
2023-01-30T08:45:26.179Z,101184.76
2023-01-30T08:48:02.432Z,101174.40
2023-01-30T08:50:31.282Z,101168.47
2023-01-30T08:53:05.721Z,101165.54
2023-01-30T08:55:34.151Z,101156.46
2023-01-30T08:58:02.821Z,101156.38
2023-01-30T09:00:31.103Z,101153.17
2023-01-30T09:03:02.113Z,101141.15
2023-01-30T09:05:30.536Z,101139.71
2023-01-30T09:07:58.919Z,101133.48
2023-01-30T09:10:27.065Z,101123.65
2023-01-30T09:12:55.279Z,101111.67
2023-01-30T09:15:23.560Z,101101.05
2023-01-30T09:17:54.810Z,101092.66
2023-01-30T09:20:22.989Z,101084.77
2023-01-30T09:22:51.479Z,101077.50
2023-01-30T09:25:21.813Z,101067.14
2023-01-30T09:27:50.710Z,101055.20
2023-01-30T09:30:19.825Z,101052.56
2023-01-30T09:32:49.246Z,101049.40
2023-01-30T09:35:18.033Z,101038.23
2023-01-30T09:37:50.896Z,101029.15
2023-01-30T09:40:28.688Z,101023.33
2023-01-30T09:43:20.009Z,101018.34
2023-01-30T09:46:04.772Z,101018.05
2023-01-30T09:48:51.258Z,101002.45
2023-01-30T09:51:33.558Z,100986.80
2023-01-30T09:54:18.274Z,100978.61
2023-01-30T09:56:46.729Z,100986.38
2023-01-30T09:59:23.937Z,100973.31
2023-01-30T10:02:48.142Z,100963.05
2023-01-30T10:05:17.559Z,100959.65
2023-01-30T10:07:45.832Z,100953.40
2023-01-30T10:10:17.152Z,100949.98
2023-01-30T10:13:05.419Z,100937.36
2023-01-30T10:15:59.516Z,100926.30
2023-01-30T10:18:57.143Z,100916.91
2023-01-30T10:21:48.461Z,100905.38
2023-01-30T10:24:37.407Z,100895.51
2023-01-30T10:27:13.316Z,100887.53
2023-01-30T10:29:47.890Z,100878.52
2023-01-30T10:32:26.266Z,100867.23
2023-01-30T10:34:58.365Z,100862.84
2023-01-30T10:38:19.045Z,100856.38
2023-01-30T10:41:13.530Z,100859.10
2023-01-30T10:43:49.076Z,100846.58
2023-01-30T10:46:43.532Z,100851.30
2023-01-30T10:49:19.710Z,100837.85
2023-01-30T10:52:10.917Z,100829.54
2023-01-30T10:54:54.261Z,100816.77
2023-01-30T10:57:25.605Z,100811.19
2023-01-30T11:00:08.101Z,100804.23
2023-01-30T11:03:12.078Z,100799.14
2023-01-30T11:05:47.644Z,100791.15
2023-01-30T11:08:31.774Z,100780.86
2023-01-30T11:11:01.409Z,100772.59
2023-01-30T11:13:33.484Z,100767.72
2023-01-30T11:16:09.677Z,100762.64
2023-01-30T11:21:44.562Z,100745.71
2023-01-30T11:24:22.981Z,100741.93
2023-01-30T11:26:53.241Z,100739.02
2023-01-30T11:29:32.870Z,100735.20
2023-01-30T11:32:04.419Z,100727.52
2023-01-30T11:34:33.303Z,100720.73
2023-01-30T11:37:27.649Z,100719.78
2023-01-30T11:39:56.589Z,100714.98
2023-01-30T11:42:30.707Z,100707.33
2023-01-30T11:45:16.104Z,100697.17
2023-01-30T11:48:00.408Z,100693.88
2023-01-30T11:50:44.650Z,100683.78
2023-01-30T11:53:37.507Z,100680.77
2023-01-30T11:56:22.363Z,100672.61
2023-01-30T11:59:00.159Z,100661.63
2023-01-30T12:01:36.839Z,100653.87
2023-01-30T12:04:09.167Z,100651.73
2023-01-30T12:06:40.354Z,100654.19
2023-01-30T12:09:33.706Z,100645.59
2023-01-30T12:12:02.510Z,100644.10
2023-01-30T12:14:49.500Z,100646.34
2023-01-30T12:17:28.030Z,100636.36
2023-01-30T12:20:13.197Z,100634.62
2023-01-30T12:22:53.673Z,100631.85
2023-01-30T12:25:26.959Z,100624.46
2023-01-30T12:28:01.392Z,100616.89
2023-01-30T12:33:10.994Z,100606.77
2023-01-30T12:36:07.287Z,100606.80
2023-01-30T12:38:57.654Z,100609.69
2023-01-30T12:41:47.220Z,100604.38
2023-01-30T12:44:18.562Z,100600.57
2023-01-30T12:46:49.914Z,100594.97
2023-01-30T12:49:48.083Z,100596.23
2023-01-30T12:52:44.510Z,100593.55
2023-01-30T12:55:51.594Z,100580.38
2023-01-30T12:58:49.325Z,100578.61
2023-01-30T13:01:25.300Z,100576.81
2023-01-30T13:04:09.627Z,100578.83
2023-01-30T13:07:03.112Z,100577.52
2023-01-30T13:10:02.814Z,100573.10
2023-01-30T13:12:37.214Z,100571.15
2023-01-30T13:15:20.433Z,100569.41
2023-01-30T13:18:00.786Z,100566.54
2023-01-30T13:20:55.268Z,100563.73
2023-01-30T13:23:32.455Z,100561.20
2023-01-30T13:26:12.632Z,100557.64
2023-01-30T13:28:44.679Z,100549.73
2023-01-30T13:31:21.700Z,100538.62
2023-01-30T13:33:56.586Z,100532.44
2023-01-30T13:36:40.325Z,100527.76
2023-01-30T13:39:20.064Z,100531.73
2023-01-30T13:41:53.773Z,100533.64
2023-01-30T13:44:33.823Z,100531.57
2023-01-30T13:47:43.566Z,100527.07
2023-01-30T13:50:27.088Z,100514.41
2023-01-30T13:53:02.632Z,100510.32
2023-01-30T13:55:40.222Z,100509.23
2023-01-30T13:58:22.012Z,100508.00
2023-01-30T14:00:55.251Z,100497.62
2023-01-30T14:03:26.659Z,100496.40
2023-01-30T14:05:56.890Z,100492.38
2023-01-30T14:08:29.679Z,100486.30
2023-01-30T14:10:58.881Z,100485.14
2023-01-30T14:13:29.729Z,100484.09
2023-01-30T14:16:04.260Z,100484.88
2023-01-30T14:18:36.255Z,100476.27
2023-01-30T14:21:25.594Z,100478.66
2023-01-30T14:23:59.233Z,100468.60
2023-01-30T14:26:49.150Z,100463.62
2023-01-30T14:29:39.635Z,100456.94
2023-01-30T14:32:14.375Z,100462.04
2023-01-30T14:35:01.067Z,100469.64
2023-01-30T14:37:46.347Z,100465.98
2023-01-30T14:40:23.637Z,100458.78
2023-01-30T14:43:18.003Z,100452.98
2023-01-30T14:45:55.050Z,100447.80
2023-01-30T14:48:42.957Z,100453.58
2023-01-30T14:51:18.980Z,100456.81
2023-01-30T14:54:02.194Z,100460.65
2023-01-30T14:56:51.967Z,100454.37
2023-01-30T14:59:40.212Z,100444.85
2023-01-30T15:02:14.936Z,100439.41
2023-01-30T15:05:03.695Z,100435.29
2023-01-30T15:07:44.348Z,100433.39
2023-01-30T15:10:50.903Z,100430.39
2023-01-30T15:13:35.557Z,100430.83
2023-01-30T15:16:19.258Z,100429.13
2023-01-30T15:18:47.680Z,100430.25
2023-01-30T15:21:22.514Z,100433.34
2023-01-30T15:24:18.733Z,100434.92
2023-01-30T15:27:13.236Z,100434.14
2023-01-30T15:30:00.747Z,100428.16
2023-01-30T15:32:31.474Z,100442.36
2023-01-30T15:35:03.860Z,100443.71
2023-01-30T15:37:33.965Z,100444.27
2023-01-30T15:41:25.147Z,100449.19
2023-01-30T15:45:26.586Z,100456.86
2023-01-30T15:48:41.488Z,100463.73
2023-01-30T15:51:13.774Z,100460.77
2023-01-30T15:53:45.068Z,100467.53
2023-01-30T15:56:26.582Z,100465.52
2023-01-30T15:58:58.816Z,100464.76
2023-01-30T16:01:27.933Z,100469.70
2023-01-30T16:03:58.817Z,100467.85
2023-01-30T16:06:33.988Z,100464.73
2023-01-30T16:09:25.351Z,100462.28
2023-01-30T16:11:53.952Z,100462.14
2023-01-30T16:14:22.948Z,100462.02
2023-01-30T16:16:54.066Z,100460.72
2023-01-30T16:19:31.988Z,100458.81
2023-01-30T16:22:06.605Z,100453.57
2023-01-30T16:24:37.688Z,100461.48
2023-01-30T16:27:08.620Z,100457.91
2023-01-30T16:30:09.296Z,100455.05
2023-01-30T16:32:39.049Z,100450.31
2023-01-30T16:35:27.405Z,100444.35
2023-01-30T16:37:58.974Z,100440.05
2023-01-30T16:40:31.023Z,100442.06
2023-01-30T16:43:02.716Z,100438.82
2023-01-30T16:45:33.933Z,100432.30
2023-01-30T16:48:18.583Z,100427.73
2023-01-30T16:51:00.788Z,100427.02
2023-01-30T16:53:31.282Z,100424.67
2023-01-30T16:56:02.462Z,100417.83
2023-01-30T16:58:33.788Z,100418.01
2023-01-30T17:01:05.366Z,100421.41
2023-01-30T17:03:41.112Z,100412.04
2023-01-30T17:06:22.094Z,100408.08
2023-01-30T17:08:59.000Z,100396.37
2023-01-30T17:11:33.397Z,100393.55
2023-01-30T17:14:26.001Z,100390.23
2023-01-30T17:17:10.686Z,100388.15
2023-01-30T17:19:38.967Z,100386.09
2023-01-30T17:22:16.254Z,100382.64
2023-01-30T17:24:44.750Z,100386.97
2023-01-30T17:27:13.103Z,100383.46
2023-01-30T17:29:44.040Z,100381.36
2023-01-30T17:32:15.515Z,100377.46
2023-01-30T17:34:44.137Z,100378.87
2023-01-30T17:37:30.507Z,100373.85
2023-01-30T17:39:59.098Z,100378.54
2023-01-30T17:42:27.495Z,100372.52
2023-01-30T17:44:56.073Z,100374.99
2023-01-30T17:47:24.772Z,100374.66
2023-01-30T17:49:53.152Z,100377.45
2023-01-30T17:52:21.533Z,100371.80
2023-01-30T17:54:49.708Z,100372.06
2023-01-30T17:57:18.509Z,100369.96
2023-01-30T17:59:47.215Z,100370.08
2023-01-30T18:02:15.596Z,100371.60
2023-01-30T18:04:44.389Z,100364.36
2023-01-30T18:07:14.773Z,100363.02
2023-01-30T18:09:43.210Z,100362.47
2023-01-30T18:12:11.991Z,100365.81
2023-01-30T18:14:40.278Z,100366.73
2023-01-30T18:17:09.933Z,100362.73
2023-01-30T18:19:38.669Z,100369.30
2023-01-30T18:22:06.981Z,100374.24
2023-01-30T18:24:35.145Z,100370.98
2023-01-30T18:27:03.753Z,100368.39
2023-01-30T18:29:32.415Z,100366.51
2023-01-30T18:32:05.887Z,100365.98
2023-01-30T18:34:34.299Z,100360.19
2023-01-30T18:37:02.682Z,100365.16
2023-01-30T18:39:32.301Z,100368.13
2023-01-30T18:42:02.205Z,100372.08
2023-01-30T18:44:30.721Z,100379.60
2023-01-30T18:46:59.195Z,100383.77
2023-01-30T18:49:27.677Z,100386.33
2023-01-30T18:51:56.066Z,100389.67
2023-01-30T18:54:24.352Z,100389.91
2023-01-30T18:56:52.691Z,100384.76
2023-01-30T18:59:21.520Z,100390.75
2023-01-30T19:01:50.115Z,100386.96
2023-01-30T19:04:18.426Z,100390.08
2023-01-30T19:06:46.881Z,100386.13
2023-01-30T19:09:18.394Z,100389.78
2023-01-30T19:12:05.962Z,100390.52
2023-01-30T19:14:34.341Z,100393.41
2023-01-30T19:17:02.725Z,100395.21
2023-01-30T19:19:32.458Z,100400.41
2023-01-30T19:22:01.233Z,100400.65
2023-01-30T19:24:29.519Z,100396.66
2023-01-30T19:26:57.868Z,100401.59
2023-01-30T19:29:26.291Z,100402.05
2023-01-30T19:31:54.802Z,100402.52
2023-01-30T19:34:23.263Z,100407.04
2023-01-30T19:36:51.653Z,100408.31
2023-01-30T19:39:21.474Z,100407.08
2023-01-30T19:41:49.747Z,100401.63
2023-01-30T19:44:18.329Z,100400.58
2023-01-30T19:46:46.976Z,100404.13
2023-01-30T19:49:16.052Z,100400.06
2023-01-30T19:51:44.624Z,100401.54
2023-01-30T19:54:13.249Z,100400.69
2023-01-30T19:56:42.762Z,100404.35
2023-01-30T19:59:13.250Z,100397.35
2023-01-30T20:01:41.852Z,100401.16
2023-01-30T20:04:10.524Z,100399.97
2023-01-30T20:06:44.537Z,100395.94
2023-01-30T20:09:13.022Z,100386.17
2023-01-30T20:11:42.038Z,100389.97
2023-01-30T20:14:11.037Z,100391.92
2023-01-30T20:16:40.020Z,100395.35
2023-01-30T20:19:16.807Z,100401.16
2023-01-30T20:21:45.598Z,100396.95
2023-01-30T20:24:15.607Z,100397.31
2023-01-30T20:26:47.814Z,100400.89
2023-01-30T20:29:18.212Z,100401.55
2023-01-30T20:31:47.185Z,100404.29
2023-01-30T20:34:15.703Z,100406.63
2023-01-30T20:36:44.186Z,100409.16
2023-01-30T20:39:14.272Z,100412.88
2023-01-30T20:41:43.150Z,100410.73
2023-01-30T20:44:13.857Z,100407.00
2023-01-30T20:46:46.873Z,100411.27
2023-01-30T20:49:18.642Z,100412.91
2023-01-30T20:51:50.366Z,100409.69
2023-01-30T20:54:21.919Z,100409.75
2023-01-30T20:56:53.037Z,100416.66
2023-01-30T20:59:24.605Z,100415.53
2023-01-30T21:01:53.844Z,100417.39
2023-01-30T21:04:24.765Z,100418.79
2023-01-30T21:06:53.866Z,100417.73
2023-01-30T21:09:23.989Z,100422.52
2023-01-30T21:11:53.577Z,100426.70
2023-01-30T21:14:22.519Z,100428.70
2023-01-30T21:16:51.023Z,100431.41
2023-01-30T21:19:19.676Z,100430.64
2023-01-30T21:21:51.517Z,100430.73
2023-01-30T21:24:23.998Z,100426.13
2023-01-30T21:26:53.081Z,100427.31
2023-01-30T21:29:24.765Z,100432.59
2023-01-30T21:31:53.875Z,100434.75
2023-01-30T21:34:22.711Z,100431.98
2023-01-30T21:37:09.709Z,100443.12
2023-01-30T21:39:57.617Z,100449.85
2023-01-30T21:42:45.028Z,100447.64
2023-01-30T21:45:13.721Z,100452.19
2023-01-30T21:47:42.823Z,100449.52
2023-01-30T21:50:11.333Z,100451.91
2023-01-30T21:52:40.071Z,100452.90
2023-01-30T21:55:09.348Z,100458.36
2023-01-30T21:57:37.726Z,100456.77
2023-01-30T22:00:07.153Z,100460.50
2023-01-30T22:02:35.495Z,100468.00
2023-01-30T22:05:04.444Z,100467.56
2023-01-30T22:07:32.765Z,100472.28
2023-01-30T22:10:04.127Z,100469.98
2023-01-30T22:12:32.800Z,100472.04
2023-01-30T22:15:01.639Z,100474.39
2023-01-30T22:17:30.128Z,100473.64
2023-01-30T22:19:58.570Z,100476.87
2023-01-30T22:22:26.960Z,100477.13
2023-01-30T22:24:55.344Z,100478.06
2023-01-30T22:27:23.720Z,100473.38
2023-01-30T22:29:52.420Z,100468.94
2023-01-30T22:32:21.221Z,100470.08
2023-01-30T22:34:49.490Z,100471.61
2023-01-30T22:37:17.689Z,100468.72
2023-01-30T22:39:46.053Z,100464.80
2023-01-30T22:42:14.646Z,100462.78
2023-01-30T22:44:43.334Z,100465.45
2023-01-30T22:47:11.659Z,100462.66
2023-01-30T22:49:40.013Z,100462.70
2023-01-30T22:52:08.521Z,100461.31
2023-01-30T22:54:37.161Z,100463.29
2023-01-30T22:57:05.585Z,100464.14
2023-01-30T22:59:34.158Z,100465.48
2023-01-30T23:02:04.308Z,100460.39
2023-01-30T23:04:33.172Z,100455.16
2023-01-30T23:07:01.761Z,100458.09
2023-01-30T23:09:30.043Z,100458.61
2023-01-30T23:12:17.583Z,100463.71
2023-01-30T23:14:46.224Z,100460.33
2023-01-30T23:17:33.574Z,100462.80
2023-01-30T23:20:02.079Z,100464.62
2023-01-30T23:22:30.646Z,100459.00
2023-01-30T23:24:59.032Z,100462.42
2023-01-30T23:27:27.628Z,100465.27
2023-01-30T23:29:56.111Z,100463.66
2023-01-30T23:32:24.902Z,100463.91
2023-01-30T23:34:53.086Z,100466.06
2023-01-30T23:37:41.219Z,100467.46
2023-01-30T23:40:10.787Z,100469.81
2023-01-30T23:42:39.014Z,100470.52
2023-01-30T23:45:08.625Z,100474.30
2023-01-30T23:47:37.825Z,100472.25
2023-01-30T23:50:06.835Z,100469.44
2023-01-30T23:52:35.229Z,100464.84
2023-01-30T23:55:03.904Z,100464.42
2023-01-30T23:57:32.295Z,100462.42
